sensor_id;sensor_type;location;lat;lon;timestamp;temperature;humidity
56234;DHT22;42141;53.240;6.580;2022-10-16T00:00:16;13.40;99.90
56234;DHT22;42141;53.240;6.580;2022-10-16T00:02:42;12.70;99.90
56234;DHT22;42141;53.240;6.580;2022-10-16T00:05:08;12.70;99.90
56234;DHT22;42141;53.240;6.580;2022-10-16T00:07:33;12.70;99.90
56234;DHT22;42141;53.240;6.580;2022-10-16T00:09:59;12.70;99.90
56234;DHT22;42141;53.240;6.580;2022-10-16T00:12:24;12.70;99.90
56234;DHT22;42141;53.240;6.580;2022-10-16T00:14:50;14.00;99.90
56234;DHT22;42141;53.240;6.580;2022-10-16T00:17:15;12.70;99.90
56234;DHT22;42141;53.240;6.580;2022-10-16T00:19:44;12.70;99.90
56234;DHT22;42141;53.240;6.580;2022-10-16T00:22:10;13.80;99.90
56234;DHT22;42141;53.240;6.580;2022-10-16T00:24:36;12.70;99.90
56234;DHT22;42141;53.240;6.580;2022-10-16T00:27:01;13.10;99.90
56234;DHT22;42141;53.240;6.580;2022-10-16T00:29:27;12.70;99.90
56234;DHT22;42141;53.240;6.580;2022-10-16T00:31:52;13.10;99.90
56234;DHT22;42141;53.240;6.580;2022-10-16T00:34:18;13.60;99.90
56234;DHT22;42141;53.240;6.580;2022-10-16T00:36:43;13.40;99.90
56234;DHT22;42141;53.240;6.580;2022-10-16T00:39:09;12.70;99.90
56234;DHT22;42141;53.240;6.580;2022-10-16T00:41:35;12.70;99.90
56234;DHT22;42141;53.240;6.580;2022-10-16T00:44:02;13.50;99.90
56234;DHT22;42141;53.240;6.580;2022-10-16T00:49:10;12.70;99.90
56234;DHT22;42141;53.240;6.580;2022-10-16T00:51:40;12.70;99.90
56234;DHT22;42141;53.240;6.580;2022-10-16T00:54:15;12.70;99.90
56234;DHT22;42141;53.240;6.580;2022-10-16T00:56:41;12.70;99.90
56234;DHT22;42141;53.240;6.580;2022-10-16T00:59:16;12.70;99.90
56234;DHT22;42141;53.240;6.580;2022-10-16T01:01:43;12.70;99.90
56234;DHT22;42141;53.240;6.580;2022-10-16T01:04:09;13.30;99.90
56234;DHT22;42141;53.240;6.580;2022-10-16T01:14:30;12.80;99.90
56234;DHT22;42141;53.240;6.580;2022-10-16T01:17:17;12.80;99.90
56234;DHT22;42141;53.240;6.580;2022-10-16T01:22:16;12.80;99.90
56234;DHT22;42141;53.240;6.580;2022-10-16T01:24:46;13.70;99.90
56234;DHT22;42141;53.240;6.580;2022-10-16T01:27:46;12.80;99.90
56234;DHT22;42141;53.240;6.580;2022-10-16T01:30:13;12.80;99.90
56234;DHT22;42141;53.240;6.580;2022-10-16T01:32:41;12.80;99.90
56234;DHT22;42141;53.240;6.580;2022-10-16T01:40:23;12.80;99.90
56234;DHT22;42141;53.240;6.580;2022-10-16T01:42:52;12.80;99.90
56234;DHT22;42141;53.240;6.580;2022-10-16T01:45:19;12.80;99.90
56234;DHT22;42141;53.240;6.580;2022-10-16T01:47:46;12.80;99.90
56234;DHT22;42141;53.240;6.580;2022-10-16T01:50:13;12.80;99.90
56234;DHT22;42141;53.240;6.580;2022-10-16T01:52:42;13.60;99.90
56234;DHT22;42141;53.240;6.580;2022-10-16T01:55:09;12.80;99.90
56234;DHT22;42141;53.240;6.580;2022-10-16T01:57:43;13.40;99.90
56234;DHT22;42141;53.240;6.580;2022-10-16T02:00:10;12.80;99.90
56234;DHT22;42141;53.240;6.580;2022-10-16T02:02:38;12.80;99.90
56234;DHT22;42141;53.240;6.580;2022-10-16T02:05:05;12.80;99.90
56234;DHT22;42141;53.240;6.580;2022-10-16T02:07:33;12.90;99.90
56234;DHT22;42141;53.240;6.580;2022-10-16T02:09:59;13.30;99.90
56234;DHT22;42141;53.240;6.580;2022-10-16T02:12:26;12.90;99.90
56234;DHT22;42141;53.240;6.580;2022-10-16T02:14:52;12.40;99.90
56234;DHT22;42141;53.240;6.580;2022-10-16T02:17:18;12.90;99.90
56234;DHT22;42141;53.240;6.580;2022-10-16T02:19:45;12.90;99.90
56234;DHT22;42141;53.240;6.580;2022-10-16T02:22:15;13.30;99.90
56234;DHT22;42141;53.240;6.580;2022-10-16T02:27:14;13.00;99.90
56234;DHT22;42141;53.240;6.580;2022-10-16T02:29:42;13.00;99.90
56234;DHT22;42141;53.240;6.580;2022-10-16T02:32:10;14.40;99.90
56234;DHT22;42141;53.240;6.580;2022-10-16T02:34:38;13.00;99.90
56234;DHT22;42141;53.240;6.580;2022-10-16T02:37:05;13.00;99.90
56234;DHT22;42141;53.240;6.580;2022-10-16T02:39:32;13.00;99.90
56234;DHT22;42141;53.240;6.580;2022-10-16T02:41:58;13.10;99.90
56234;DHT22;42141;53.240;6.580;2022-10-16T02:44:23;13.10;99.90
56234;DHT22;42141;53.240;6.580;2022-10-16T02:46:49;13.00;99.90
56234;DHT22;42141;53.240;6.580;2022-10-16T02:49:14;12.10;99.90
56234;DHT22;42141;53.240;6.580;2022-10-16T02:51:40;14.30;99.90
56234;DHT22;42141;53.240;6.580;2022-10-16T02:54:06;13.80;99.90
56234;DHT22;42141;53.240;6.580;2022-10-16T02:56:31;13.00;99.90
56234;DHT22;42141;53.240;6.580;2022-10-16T02:58:57;13.00;99.90
56234;DHT22;42141;53.240;6.580;2022-10-16T03:01:23;13.30;99.90
56234;DHT22;42141;53.240;6.580;2022-10-16T03:03:49;13.00;99.90
56234;DHT22;42141;53.240;6.580;2022-10-16T03:06:14;13.00;99.90
56234;DHT22;42141;53.240;6.580;2022-10-16T03:08:40;13.00;99.90
56234;DHT22;42141;53.240;6.580;2022-10-16T03:11:05;13.00;99.90
56234;DHT22;42141;53.240;6.580;2022-10-16T03:13:31;13.60;99.90
56234;DHT22;42141;53.240;6.580;2022-10-16T03:15:57;13.00;99.90
56234;DHT22;42141;53.240;6.580;2022-10-16T03:18:22;13.10;99.90
56234;DHT22;42141;53.240;6.580;2022-10-16T03:20:48;13.90;99.90
56234;DHT22;42141;53.240;6.580;2022-10-16T03:23:13;13.30;99.90
56234;DHT22;42141;53.240;6.580;2022-10-16T03:25:39;13.00;99.90
56234;DHT22;42141;53.240;6.580;2022-10-16T03:28:04;13.10;99.90
56234;DHT22;42141;53.240;6.580;2022-10-16T03:30:30;13.10;99.90
56234;DHT22;42141;53.240;6.580;2022-10-16T03:32:56;13.50;99.90
56234;DHT22;42141;53.240;6.580;2022-10-16T03:35:21;12.00;99.90
56234;DHT22;42141;53.240;6.580;2022-10-16T03:37:47;12.70;99.90
56234;DHT22;42141;53.240;6.580;2022-10-16T03:40:13;13.10;99.90
56234;DHT22;42141;53.240;6.580;2022-10-16T03:42:39;13.10;99.90
56234;DHT22;42141;53.240;6.580;2022-10-16T03:45:05;13.10;99.90
56234;DHT22;42141;53.240;6.580;2022-10-16T03:47:31;13.10;99.90
56234;DHT22;42141;53.240;6.580;2022-10-16T03:49:58;13.10;99.90
56234;DHT22;42141;53.240;6.580;2022-10-16T03:52:24;13.10;99.90
56234;DHT22;42141;53.240;6.580;2022-10-16T03:54:49;12.30;99.90
56234;DHT22;42141;53.240;6.580;2022-10-16T03:57:15;13.10;99.90
56234;DHT22;42141;53.240;6.580;2022-10-16T03:59:40;13.30;99.90
56234;DHT22;42141;53.240;6.580;2022-10-16T04:02:06;13.00;99.90
56234;DHT22;42141;53.240;6.580;2022-10-16T04:04:32;13.20;99.90
56234;DHT22;42141;53.240;6.580;2022-10-16T04:06:57;13.00;99.90
56234;DHT22;42141;53.240;6.580;2022-10-16T04:09:23;13.10;99.90
56234;DHT22;42141;53.240;6.580;2022-10-16T04:11:51;13.80;99.90
56234;DHT22;42141;53.240;6.580;2022-10-16T04:14:17;12.90;99.90
56234;DHT22;42141;53.240;6.580;2022-10-16T04:16:42;13.80;99.90
56234;DHT22;42141;53.240;6.580;2022-10-16T04:19:09;12.80;99.90
56234;DHT22;42141;53.240;6.580;2022-10-16T04:21:34;12.80;99.90
56234;DHT22;42141;53.240;6.580;2022-10-16T04:24:00;12.80;99.90
56234;DHT22;42141;53.240;6.580;2022-10-16T04:26:25;12.80;99.90
56234;DHT22;42141;53.240;6.580;2022-10-16T04:28:51;13.40;99.90
56234;DHT22;42141;53.240;6.580;2022-10-16T04:31:16;13.90;99.90
56234;DHT22;42141;53.240;6.580;2022-10-16T04:33:42;13.30;99.90
56234;DHT22;42141;53.240;6.580;2022-10-16T04:36:08;12.70;99.90
56234;DHT22;42141;53.240;6.580;2022-10-16T04:38:33;12.60;99.90
56234;DHT22;42141;53.240;6.580;2022-10-16T04:40:59;12.60;99.90
56234;DHT22;42141;53.240;6.580;2022-10-16T04:43:25;12.60;99.90
56234;DHT22;42141;53.240;6.580;2022-10-16T04:45:51;12.60;99.90
56234;DHT22;42141;53.240;6.580;2022-10-16T04:48:17;12.60;99.90
56234;DHT22;42141;53.240;6.580;2022-10-16T04:50:43;12.70;99.90
56234;DHT22;42141;53.240;6.580;2022-10-16T04:53:12;12.70;99.90
56234;DHT22;42141;53.240;6.580;2022-10-16T04:55:37;13.00;99.90
56234;DHT22;42141;53.240;6.580;2022-10-16T04:58:03;12.70;99.90
56234;DHT22;42141;53.240;6.580;2022-10-16T05:00:29;11.80;99.90
56234;DHT22;42141;53.240;6.580;2022-10-16T05:02:55;12.80;99.90
56234;DHT22;42141;53.240;6.580;2022-10-16T05:05:21;12.80;99.90
56234;DHT22;42141;53.240;6.580;2022-10-16T05:07:47;12.80;99.90
56234;DHT22;42141;53.240;6.580;2022-10-16T05:10:15;12.80;99.90
56234;DHT22;42141;53.240;6.580;2022-10-16T05:12:42;12.80;99.90
56234;DHT22;42141;53.240;6.580;2022-10-16T05:15:07;12.80;99.90
56234;DHT22;42141;53.240;6.580;2022-10-16T05:17:33;13.40;99.90
56234;DHT22;42141;53.240;6.580;2022-10-16T05:19:59;12.90;99.90
56234;DHT22;42141;53.240;6.580;2022-10-16T05:22:25;12.90;99.90
56234;DHT22;42141;53.240;6.580;2022-10-16T05:24:53;12.90;99.90
56234;DHT22;42141;53.240;6.580;2022-10-16T05:27:19;12.90;99.90
56234;DHT22;42141;53.240;6.580;2022-10-16T05:29:46;13.30;99.90
56234;DHT22;42141;53.240;6.580;2022-10-16T05:32:12;12.90;99.90
56234;DHT22;42141;53.240;6.580;2022-10-16T05:34:38;12.90;99.90
56234;DHT22;42141;53.240;6.580;2022-10-16T05:37:04;12.90;99.90
56234;DHT22;42141;53.240;6.580;2022-10-16T05:39:30;12.90;99.90
56234;DHT22;42141;53.240;6.580;2022-10-16T05:41:55;12.60;99.90
56234;DHT22;42141;53.240;6.580;2022-10-16T05:44:21;12.90;99.90
56234;DHT22;42141;53.240;6.580;2022-10-16T05:46:50;12.90;99.90
56234;DHT22;42141;53.240;6.580;2022-10-16T05:49:18;12.90;99.90
56234;DHT22;42141;53.240;6.580;2022-10-16T05:51:44;12.90;99.90
56234;DHT22;42141;53.240;6.580;2022-10-16T05:54:09;12.90;99.90
56234;DHT22;42141;53.240;6.580;2022-10-16T05:56:35;12.90;99.90
56234;DHT22;42141;53.240;6.580;2022-10-16T05:59:00;13.60;99.90
56234;DHT22;42141;53.240;6.580;2022-10-16T06:01:28;12.90;99.90
56234;DHT22;42141;53.240;6.580;2022-10-16T06:03:53;12.80;99.90
56234;DHT22;42141;53.240;6.580;2022-10-16T06:06:20;12.90;99.90
56234;DHT22;42141;53.240;6.580;2022-10-16T06:08:46;13.70;99.90
56234;DHT22;42141;53.240;6.580;2022-10-16T06:11:16;13.50;99.90
56234;DHT22;42141;53.240;6.580;2022-10-16T06:13:42;12.80;99.90
56234;DHT22;42141;53.240;6.580;2022-10-16T06:16:08;12.80;99.90
56234;DHT22;42141;53.240;6.580;2022-10-16T06:18:34;12.80;99.90
56234;DHT22;42141;53.240;6.580;2022-10-16T06:20:59;12.80;99.90
56234;DHT22;42141;53.240;6.580;2022-10-16T06:23:31;12.80;99.90
56234;DHT22;42141;53.240;6.580;2022-10-16T06:26:03;13.30;99.90
56234;DHT22;42141;53.240;6.580;2022-10-16T06:28:29;12.80;99.90
56234;DHT22;42141;53.240;6.580;2022-10-16T06:31:01;12.90;99.90
56234;DHT22;42141;53.240;6.580;2022-10-16T06:33:27;12.90;99.90
56234;DHT22;42141;53.240;6.580;2022-10-16T06:36:04;12.90;99.90
56234;DHT22;42141;53.240;6.580;2022-10-16T06:38:30;12.90;99.90
56234;DHT22;42141;53.240;6.580;2022-10-16T06:40:56;13.00;99.90
56234;DHT22;42141;53.240;6.580;2022-10-16T06:43:22;13.00;99.90
56234;DHT22;42141;53.240;6.580;2022-10-16T06:45:54;13.00;99.90
56234;DHT22;42141;53.240;6.580;2022-10-16T06:48:20;13.10;99.90
56234;DHT22;42141;53.240;6.580;2022-10-16T06:53:20;13.00;99.90
56234;DHT22;42141;53.240;6.580;2022-10-16T06:55:46;13.10;99.90
56234;DHT22;42141;53.240;6.580;2022-10-16T06:58:11;13.10;99.90
56234;DHT22;42141;53.240;6.580;2022-10-16T07:00:37;13.10;99.90
56234;DHT22;42141;53.240;6.580;2022-10-16T07:03:03;13.10;99.90
56234;DHT22;42141;53.240;6.580;2022-10-16T07:05:29;13.10;99.90
56234;DHT22;42141;53.240;6.580;2022-10-16T07:07:55;13.10;99.90
56234;DHT22;42141;53.240;6.580;2022-10-16T07:10:20;13.20;99.90
56234;DHT22;42141;53.240;6.580;2022-10-16T07:12:49;13.80;99.90
56234;DHT22;42141;53.240;6.580;2022-10-16T07:15:15;13.40;99.90
56234;DHT22;42141;53.240;6.580;2022-10-16T07:17:40;13.30;99.90
56234;DHT22;42141;53.240;6.580;2022-10-16T07:20:06;13.30;99.90
56234;DHT22;42141;53.240;6.580;2022-10-16T07:22:32;12.30;99.90
56234;DHT22;42141;53.240;6.580;2022-10-16T07:24:58;13.40;99.90
56234;DHT22;42141;53.240;6.580;2022-10-16T07:27:24;13.40;99.90
56234;DHT22;42141;53.240;6.580;2022-10-16T07:29:49;13.40;99.90
56234;DHT22;42141;53.240;6.580;2022-10-16T07:32:15;13.90;99.90
56234;DHT22;42141;53.240;6.580;2022-10-16T07:34:41;13.50;99.90
56234;DHT22;42141;53.240;6.580;2022-10-16T07:37:07;13.50;99.90
56234;DHT22;42141;53.240;6.580;2022-10-16T07:39:32;13.50;99.90
56234;DHT22;42141;53.240;6.580;2022-10-16T07:41:58;13.50;99.90
56234;DHT22;42141;53.240;6.580;2022-10-16T07:44:24;14.20;99.90
56234;DHT22;42141;53.240;6.580;2022-10-16T07:46:50;13.50;99.90
56234;DHT22;42141;53.240;6.580;2022-10-16T07:49:15;13.50;99.90
56234;DHT22;42141;53.240;6.580;2022-10-16T07:51:41;14.30;99.90
56234;DHT22;42141;53.240;6.580;2022-10-16T07:54:10;13.60;99.90
56234;DHT22;42141;53.240;6.580;2022-10-16T07:56:35;14.20;99.90
56234;DHT22;42141;53.240;6.580;2022-10-16T07:59:07;13.50;99.90
56234;DHT22;42141;53.240;6.580;2022-10-16T08:01:32;14.40;99.90
56234;DHT22;42141;53.240;6.580;2022-10-16T08:04:00;14.10;99.90
56234;DHT22;42141;53.240;6.580;2022-10-16T08:06:25;13.50;99.90
56234;DHT22;42141;53.240;6.580;2022-10-16T08:08:51;13.90;99.90
56234;DHT22;42141;53.240;6.580;2022-10-16T08:11:19;13.50;99.90
56234;DHT22;42141;53.240;6.580;2022-10-16T08:13:45;14.10;99.90
56234;DHT22;42141;53.240;6.580;2022-10-16T08:16:10;14.40;99.90
56234;DHT22;42141;53.240;6.580;2022-10-16T08:18:37;14.00;99.90
56234;DHT22;42141;53.240;6.580;2022-10-16T08:21:03;13.60;99.90
56234;DHT22;42141;53.240;6.580;2022-10-16T08:23:28;13.70;99.90
56234;DHT22;42141;53.240;6.580;2022-10-16T08:25:54;13.80;99.90
56234;DHT22;42141;53.240;6.580;2022-10-16T08:28:20;14.00;99.90
56234;DHT22;42141;53.240;6.580;2022-10-16T08:30:45;14.20;99.90
56234;DHT22;42141;53.240;6.580;2022-10-16T08:33:11;14.40;99.90
56234;DHT22;42141;53.240;6.580;2022-10-16T08:35:37;14.50;99.90
56234;DHT22;42141;53.240;6.580;2022-10-16T08:38:03;14.80;99.90
56234;DHT22;42141;53.240;6.580;2022-10-16T08:40:29;15.40;99.90
56234;DHT22;42141;53.240;6.580;2022-10-16T08:45:43;15.10;99.90
56234;DHT22;42141;53.240;6.580;2022-10-16T08:50:37;15.20;99.90
56234;DHT22;42141;53.240;6.580;2022-10-16T08:53:04;15.30;99.90
56234;DHT22;42141;53.240;6.580;2022-10-16T08:55:31;15.30;99.90
56234;DHT22;42141;53.240;6.580;2022-10-16T08:57:59;15.30;99.90
56234;DHT22;42141;53.240;6.580;2022-10-16T09:00:25;15.40;99.90
56234;DHT22;42141;53.240;6.580;2022-10-16T09:02:53;15.40;99.90
56234;DHT22;42141;53.240;6.580;2022-10-16T09:08:29;15.30;99.90
56234;DHT22;42141;53.240;6.580;2022-10-16T09:10:58;15.30;99.90
56234;DHT22;42141;53.240;6.580;2022-10-16T09:13:34;15.20;99.90
56234;DHT22;42141;53.240;6.580;2022-10-16T09:16:12;15.20;99.90
56234;DHT22;42141;53.240;6.580;2022-10-16T09:21:14;15.30;99.90
56234;DHT22;42141;53.240;6.580;2022-10-16T09:23:41;15.30;99.90
56234;DHT22;42141;53.240;6.580;2022-10-16T09:26:09;15.20;99.90
56234;DHT22;42141;53.240;6.580;2022-10-16T09:28:36;15.20;99.90
56234;DHT22;42141;53.240;6.580;2022-10-16T09:31:02;15.30;99.90
56234;DHT22;42141;53.240;6.580;2022-10-16T09:33:28;15.40;99.90
56234;DHT22;42141;53.240;6.580;2022-10-16T09:36:40;15.50;99.90
56234;DHT22;42141;53.240;6.580;2022-10-16T09:39:08;15.70;99.90
56234;DHT22;42141;53.240;6.580;2022-10-16T09:41:34;15.90;99.90
56234;DHT22;42141;53.240;6.580;2022-10-16T09:44:01;16.00;99.90
56234;DHT22;42141;53.240;6.580;2022-10-16T09:46:35;16.00;99.90
56234;DHT22;42141;53.240;6.580;2022-10-16T09:49:02;16.10;99.90
56234;DHT22;42141;53.240;6.580;2022-10-16T09:56:36;16.40;99.90
56234;DHT22;42141;53.240;6.580;2022-10-16T09:59:12;16.40;99.90
56234;DHT22;42141;53.240;6.580;2022-10-16T10:01:43;16.30;99.90
56234;DHT22;42141;53.240;6.580;2022-10-16T10:04:09;16.30;99.90
56234;DHT22;42141;53.240;6.580;2022-10-16T10:06:36;16.30;99.90
56234;DHT22;42141;53.240;6.580;2022-10-16T10:09:18;16.30;99.90
56234;DHT22;42141;53.240;6.580;2022-10-16T10:11:51;16.40;99.90
56234;DHT22;42141;53.240;6.580;2022-10-16T10:14:18;16.40;99.90
56234;DHT22;42141;53.240;6.580;2022-10-16T10:16:44;16.40;99.90
56234;DHT22;42141;53.240;6.580;2022-10-16T10:19:20;16.40;99.90
56234;DHT22;42141;53.240;6.580;2022-10-16T10:21:49;16.40;99.90
56234;DHT22;42141;53.240;6.580;2022-10-16T10:24:15;16.40;99.90
56234;DHT22;42141;53.240;6.580;2022-10-16T10:26:44;16.50;99.90
56234;DHT22;42141;53.240;6.580;2022-10-16T10:29:15;16.50;99.90
56234;DHT22;42141;53.240;6.580;2022-10-16T10:31:53;16.60;99.90
56234;DHT22;42141;53.240;6.580;2022-10-16T10:34:35;16.90;99.90
56234;DHT22;42141;53.240;6.580;2022-10-16T10:37:28;16.70;99.90
56234;DHT22;42141;53.240;6.580;2022-10-16T10:40:13;16.70;99.90
56234;DHT22;42141;53.240;6.580;2022-10-16T10:42:51;16.70;99.90
56234;DHT22;42141;53.240;6.580;2022-10-16T10:45:26;16.60;99.90
56234;DHT22;42141;53.240;6.580;2022-10-16T10:53:09;16.80;99.90
56234;DHT22;42141;53.240;6.580;2022-10-16T10:55:38;17.00;99.90
56234;DHT22;42141;53.240;6.580;2022-10-16T11:01:04;17.20;99.90
56234;DHT22;42141;53.240;6.580;2022-10-16T11:06:11;17.30;99.90
56234;DHT22;42141;53.240;6.580;2022-10-16T11:08:39;17.20;99.90
56234;DHT22;42141;53.240;6.580;2022-10-16T11:11:17;17.10;99.90
56234;DHT22;42141;53.240;6.580;2022-10-16T11:13:49;17.00;99.90
56234;DHT22;42141;53.240;6.580;2022-10-16T11:16:36;16.80;99.90
56234;DHT22;42141;53.240;6.580;2022-10-16T11:22:11;16.70;99.90
56234;DHT22;42141;53.240;6.580;2022-10-16T11:24:35;16.90;99.90
56234;DHT22;42141;53.240;6.580;2022-10-16T11:27:08;17.00;99.90
56234;DHT22;42141;53.240;6.580;2022-10-16T11:29:35;16.40;99.90
56234;DHT22;42141;53.240;6.580;2022-10-16T11:35:21;17.70;99.90
56234;DHT22;42141;53.240;6.580;2022-10-16T11:37:48;17.90;99.90
56234;DHT22;42141;53.240;6.580;2022-10-16T11:40:17;18.00;99.90
56234;DHT22;42141;53.240;6.580;2022-10-16T11:42:46;18.20;99.90
56234;DHT22;42141;53.240;6.580;2022-10-16T11:45:28;18.20;99.90
56234;DHT22;42141;53.240;6.580;2022-10-16T11:55:40;18.60;99.90
56234;DHT22;42141;53.240;6.580;2022-10-16T11:58:08;18.70;99.90
56234;DHT22;42141;53.240;6.580;2022-10-16T12:00:46;18.60;99.90
56234;DHT22;42141;53.240;6.580;2022-10-16T12:03:23;18.50;99.90
56234;DHT22;42141;53.240;6.580;2022-10-16T12:08:41;18.00;99.90
56234;DHT22;42141;53.240;6.580;2022-10-16T12:11:53;17.90;99.90
56234;DHT22;42141;53.240;6.580;2022-10-16T12:14:04;17.10;99.90
56234;DHT22;42141;53.240;6.580;2022-10-16T12:16:30;18.00;99.90
56234;DHT22;42141;53.240;6.580;2022-10-16T12:19:12;18.10;99.90
56234;DHT22;42141;53.240;6.580;2022-10-16T12:21:39;18.20;99.90
56234;DHT22;42141;53.240;6.580;2022-10-16T12:24:05;18.20;99.90
56234;DHT22;42141;53.240;6.580;2022-10-16T12:26:31;18.20;99.90
56234;DHT22;42141;53.240;6.580;2022-10-16T12:29:10;18.20;99.90
56234;DHT22;42141;53.240;6.580;2022-10-16T12:31:38;18.10;99.90
56234;DHT22;42141;53.240;6.580;2022-10-16T12:34:14;18.00;99.90
56234;DHT22;42141;53.240;6.580;2022-10-16T12:36:43;18.00;99.90
56234;DHT22;42141;53.240;6.580;2022-10-16T12:39:16;18.00;99.90
56234;DHT22;42141;53.240;6.580;2022-10-16T12:41:45;17.90;99.90
56234;DHT22;42141;53.240;6.580;2022-10-16T12:44:23;17.90;99.90
56234;DHT22;42141;53.240;6.580;2022-10-16T12:46:49;17.90;99.90
56234;DHT22;42141;53.240;6.580;2022-10-16T12:49:21;17.70;99.90
56234;DHT22;42141;53.240;6.580;2022-10-16T12:51:47;17.60;99.90
56234;DHT22;42141;53.240;6.580;2022-10-16T13:05:03;17.10;99.90
56234;DHT22;42141;53.240;6.580;2022-10-16T13:10:25;17.00;99.90
56234;DHT22;42141;53.240;6.580;2022-10-16T13:15:28;17.00;99.90
56234;DHT22;42141;53.240;6.580;2022-10-16T13:23:04;17.20;99.90
56234;DHT22;42141;53.240;6.580;2022-10-16T13:28:07;17.20;99.90
56234;DHT22;42141;53.240;6.580;2022-10-16T13:30:40;17.10;99.90
56234;DHT22;42141;53.240;6.580;2022-10-16T13:33:14;17.20;99.90
56234;DHT22;42141;53.240;6.580;2022-10-16T13:36:17;17.20;99.90
56234;DHT22;42141;53.240;6.580;2022-10-16T13:38:34;17.20;99.90
56234;DHT22;42141;53.240;6.580;2022-10-16T13:43:31;17.00;99.90
56234;DHT22;42141;53.240;6.580;2022-10-16T13:45:59;16.90;99.90
56234;DHT22;42141;53.240;6.580;2022-10-16T13:48:25;17.00;99.90
56234;DHT22;42141;53.240;6.580;2022-10-16T13:51:04;17.10;99.90
56234;DHT22;42141;53.240;6.580;2022-10-16T13:53:34;17.30;99.90
56234;DHT22;42141;53.240;6.580;2022-10-16T13:56:04;17.40;99.90
56234;DHT22;42141;53.240;6.580;2022-10-16T13:58:30;17.60;99.90
56234;DHT22;42141;53.240;6.580;2022-10-16T14:00:57;17.70;99.90
56234;DHT22;42141;53.240;6.580;2022-10-16T14:03:23;17.80;99.90
56234;DHT22;42141;53.240;6.580;2022-10-16T14:05:51;17.90;99.90
56234;DHT22;42141;53.240;6.580;2022-10-16T14:08:17;17.90;99.90
56234;DHT22;42141;53.240;6.580;2022-10-16T14:10:46;17.90;99.90
56234;DHT22;42141;53.240;6.580;2022-10-16T14:13:14;18.20;99.90
56234;DHT22;42141;53.240;6.580;2022-10-16T14:15:45;17.90;99.90
56234;DHT22;42141;53.240;6.580;2022-10-16T14:18:14;18.00;99.90
56234;DHT22;42141;53.240;6.580;2022-10-16T14:20:43;17.90;99.90
56234;DHT22;42141;53.240;6.580;2022-10-16T14:23:52;18.00;99.90
56234;DHT22;42141;53.240;6.580;2022-10-16T14:28:38;18.00;99.90
56234;DHT22;42141;53.240;6.580;2022-10-16T14:31:21;18.00;99.90
56234;DHT22;42141;53.240;6.580;2022-10-16T14:33:49;18.00;99.90
56234;DHT22;42141;53.240;6.580;2022-10-16T14:36:15;17.90;99.90
56234;DHT22;42141;53.240;6.580;2022-10-16T14:38:42;17.80;99.90
56234;DHT22;42141;53.240;6.580;2022-10-16T14:41:08;17.60;99.90
56234;DHT22;42141;53.240;6.580;2022-10-16T14:46:01;17.50;99.90
56234;DHT22;42141;53.240;6.580;2022-10-16T14:48:27;17.40;99.90
56234;DHT22;42141;53.240;6.580;2022-10-16T14:50:53;17.90;99.90
56234;DHT22;42141;53.240;6.580;2022-10-16T14:53:18;17.20;99.90
56234;DHT22;42141;53.240;6.580;2022-10-16T14:55:44;17.10;99.90
56234;DHT22;42141;53.240;6.580;2022-10-16T14:58:20;17.90;99.90
56234;DHT22;42141;53.240;6.580;2022-10-16T15:00:46;16.70;99.90
56234;DHT22;42141;53.240;6.580;2022-10-16T15:03:12;16.60;99.90
56234;DHT22;42141;53.240;6.580;2022-10-16T15:05:37;16.50;99.90
56234;DHT22;42141;53.240;6.580;2022-10-16T15:08:03;16.70;99.90
56234;DHT22;42141;53.240;6.580;2022-10-16T15:10:30;16.40;99.90
56234;DHT22;42141;53.240;6.580;2022-10-16T15:12:57;16.30;99.90
56234;DHT22;42141;53.240;6.580;2022-10-16T15:17:48;16.40;99.90
56234;DHT22;42141;53.240;6.580;2022-10-16T15:20:14;16.20;99.90
56234;DHT22;42141;53.240;6.580;2022-10-16T15:22:40;16.10;99.90
56234;DHT22;42141;53.240;6.580;2022-10-16T15:27:50;16.00;99.90
56234;DHT22;42141;53.240;6.580;2022-10-16T15:30:15;16.00;99.90
56234;DHT22;42141;53.240;6.580;2022-10-16T15:32:41;16.00;99.90
56234;DHT22;42141;53.240;6.580;2022-10-16T15:35:09;15.90;99.90
56234;DHT22;42141;53.240;6.580;2022-10-16T15:37:35;15.90;99.90
56234;DHT22;42141;53.240;6.580;2022-10-16T15:40:01;15.80;99.90
56234;DHT22;42141;53.240;6.580;2022-10-16T15:42:26;15.80;99.90
56234;DHT22;42141;53.240;6.580;2022-10-16T15:44:52;17.00;99.90
56234;DHT22;42141;53.240;6.580;2022-10-16T15:47:17;16.00;99.90
56234;DHT22;42141;53.240;6.580;2022-10-16T15:49:43;15.70;99.90
56234;DHT22;42141;53.240;6.580;2022-10-16T15:52:08;15.60;99.90
56234;DHT22;42141;53.240;6.580;2022-10-16T15:54:34;15.60;99.90
56234;DHT22;42141;53.240;6.580;2022-10-16T15:57:00;15.50;99.90
56234;DHT22;42141;53.240;6.580;2022-10-16T15:59:25;15.50;99.90
56234;DHT22;42141;53.240;6.580;2022-10-16T16:01:51;15.40;99.90
56234;DHT22;42141;53.240;6.580;2022-10-16T16:04:16;15.30;99.90
56234;DHT22;42141;53.240;6.580;2022-10-16T16:06:42;15.20;99.90
56234;DHT22;42141;53.240;6.580;2022-10-16T16:09:10;15.20;99.90
56234;DHT22;42141;53.240;6.580;2022-10-16T16:11:36;15.10;99.90
56234;DHT22;42141;53.240;6.580;2022-10-16T16:14:07;15.00;99.90
56234;DHT22;42141;53.240;6.580;2022-10-16T16:16:35;15.00;99.90
56234;DHT22;42141;53.240;6.580;2022-10-16T16:19:06;14.90;99.90
56234;DHT22;42141;53.240;6.580;2022-10-16T16:21:32;14.80;99.90
56234;DHT22;42141;53.240;6.580;2022-10-16T16:23:58;14.80;99.90
56234;DHT22;42141;53.240;6.580;2022-10-16T16:26:25;14.70;99.90
56234;DHT22;42141;53.240;6.580;2022-10-16T16:28:51;14.60;99.90
56234;DHT22;42141;53.240;6.580;2022-10-16T16:31:17;14.60;99.90
56234;DHT22;42141;53.240;6.580;2022-10-16T16:33:42;14.50;99.90
56234;DHT22;42141;53.240;6.580;2022-10-16T16:36:08;14.40;99.90
56234;DHT22;42141;53.240;6.580;2022-10-16T16:38:33;14.30;99.90
56234;DHT22;42141;53.240;6.580;2022-10-16T16:40:59;14.30;99.90
56234;DHT22;42141;53.240;6.580;2022-10-16T16:43:26;14.20;99.90
56234;DHT22;42141;53.240;6.580;2022-10-16T16:45:52;14.80;99.90
56234;DHT22;42141;53.240;6.580;2022-10-16T16:48:18;14.10;99.90
56234;DHT22;42141;53.240;6.580;2022-10-16T16:50:43;14.00;99.90
56234;DHT22;42141;53.240;6.580;2022-10-16T16:53:09;13.90;99.90
56234;DHT22;42141;53.240;6.580;2022-10-16T16:55:35;13.80;99.90
56234;DHT22;42141;53.240;6.580;2022-10-16T16:58:00;13.80;99.90
56234;DHT22;42141;53.240;6.580;2022-10-16T17:00:28;13.80;99.90
56234;DHT22;42141;53.240;6.580;2022-10-16T17:02:53;13.60;99.90
56234;DHT22;42141;53.240;6.580;2022-10-16T17:05:19;13.60;99.90
56234;DHT22;42141;53.240;6.580;2022-10-16T17:07:45;13.50;99.90
56234;DHT22;42141;53.240;6.580;2022-10-16T17:10:10;13.40;99.90
56234;DHT22;42141;53.240;6.580;2022-10-16T17:12:36;13.40;99.90
56234;DHT22;42141;53.240;6.580;2022-10-16T17:15:02;13.30;99.90
56234;DHT22;42141;53.240;6.580;2022-10-16T17:17:29;13.20;99.90